Time;durP1;ratioP1;P1;durP2;ratioP2;P2;SDS_P1;SDS_P2;PMS_P1;PMS_P2;Temp;Humidity;BMP_temperature;BMP_pressure;BME280_temperature;BME280_humidity;BME280_pressure;Samples;Min_cycle;Max_cycle;Signal;HPM_P1;HPM_P2
2023/05/20 00:00:08;;;;;;;1999.90;999.90;;;11.80;83.10;;;;;;5022339;28;20029;-78
2023/05/20 00:02:35;;;;;;;1999.90;999.90;;;11.60;84.40;;;;;;5015327;28;20038;-78
2023/05/20 00:05:01;;;;;;;1999.90;999.90;;;11.70;84.40;;;;;;5029910;28;20058;-78
2023/05/20 00:07:26;;;;;;;1999.90;999.90;;;11.70;84.70;;;;;;5029051;28;20029;-78
2023/05/20 00:09:52;;;;;;;1999.90;999.90;;;11.50;85.00;;;;;;5020297;28;20048;-79
2023/05/20 00:12:18;;;;;;;1999.90;999.90;;;11.60;84.90;;;;;;5031055;28;20037;-78
2023/05/20 00:14:44;;;;;;;1999.90;999.90;;;11.60;85.00;;;;;;5026907;28;20069;-80
2023/05/20 00:17:09;;;;;;;1999.90;999.90;;;11.60;85.60;;;;;;5019692;28;20038;-80
2023/05/20 00:19:35;;;;;;;1999.90;999.90;;;11.60;85.30;;;;;;5028787;28;20057;-80
2023/05/20 00:22:01;;;;;;;1999.90;999.90;;;11.70;85.00;;;;;;5021145;28;20038;-80
2023/05/20 00:24:27;;;;;;;1999.90;999.90;;;11.70;84.80;;;;;;5031352;28;20441;-79
2023/05/20 00:26:53;;;;;;;1999.90;999.90;;;11.70;85.20;;;;;;5026635;28;20450;-78
2023/05/20 00:29:20;;;;;;;1999.90;999.90;;;11.60;85.30;;;;;;5028756;28;20049;-79
2023/05/20 00:31:47;;;;;;;1999.90;999.90;;;11.60;85.90;;;;;;5023568;28;20124;-81
2023/05/20 00:34:13;;;;;;;1999.90;999.90;;;11.50;85.90;;;;;;5026281;28;20030;-79
2023/05/20 00:36:38;;;;;;;1999.90;999.90;;;11.50;85.90;;;;;;5024993;28;20029;-83
2023/05/20 00:39:04;;;;;;;1999.90;999.90;;;11.50;86.40;;;;;;5023536;28;20048;-83
2023/05/20 00:41:30;;;;;;;1999.90;999.90;;;11.50;86.50;;;;;;5024195;28;20052;-80
2023/05/20 00:43:56;;;;;;;1999.90;999.90;;;11.40;86.70;;;;;;5017722;28;20033;-81
2023/05/20 00:46:23;;;;;;;1999.90;999.90;;;11.40;86.80;;;;;;5031284;28;20044;-82
2023/05/20 00:48:50;;;;;;;1999.90;999.90;;;11.40;87.30;;;;;;5023547;28;20033;-82
2023/05/20 00:51:15;;;;;;;1999.90;999.90;;;11.40;86.90;;;;;;5024646;28;20076;-80
2023/05/20 00:53:42;;;;;;;1547.35;793.60;;;11.50;87.10;;;;;;5023668;28;20443;-80
2023/05/20 00:56:09;;;;;;;1537.10;784.33;;;11.40;87.20;;;;;;5035465;28;20062;-79
2023/05/20 00:58:36;;;;;;;286.40;267.23;;;11.40;87.40;;;;;;5030413;28;20034;-82
2023/05/20 01:01:02;;;;;;;328.58;306.27;;;11.40;87.60;;;;;;5027668;28;20664;-82
2023/05/20 01:03:28;;;;;;;461.77;431.45;;;11.40;87.70;;;;;;5028186;28;20118;-81
2023/05/20 01:05:54;;;;;;;392.00;365.52;;;11.40;87.90;;;;;;5027767;28;20105;-78
2023/05/20 01:08:24;;;;;;;1999.90;999.90;;;11.30;87.90;;;;;;5035512;28;20125;-83
2023/05/20 01:11:21;;;;;;;1999.90;999.90;;;11.40;87.70;;;;;;5022756;28;20061;-85
2023/05/20 01:13:53;;;;;;;361.42;337.67;;;11.40;87.60;;;;;;5022147;28;20038;-79
2023/05/20 01:16:23;;;;;;;428.85;402.92;;;11.30;88.00;;;;;;5031150;28;20047;-81
2023/05/20 01:18:50;;;;;;;861.57;514.47;;;11.30;87.80;;;;;;5028092;28;20543;-81
2023/05/20 01:21:17;;;;;;;426.30;398.17;;;11.40;87.70;;;;;;5026555;28;20427;-80
2023/05/20 01:23:43;;;;;;;1566.63;811.90;;;11.40;87.60;;;;;;5028708;28;20612;-81
2023/05/20 01:26:16;;;;;;;356.45;332.52;;;11.50;87.10;;;;;;5029216;28;20037;-83
2023/05/20 01:28:45;;;;;;;434.95;406.70;;;11.50;87.20;;;;;;5027344;28;20045;-80
2023/05/20 01:31:18;;;;;;;511.75;479.75;;;11.50;87.30;;;;;;5027548;28;20030;-81
2023/05/20 01:33:45;;;;;;;1592.35;836.28;;;11.40;87.30;;;;;;5025396;28;20031;-80
2023/05/20 01:36:11;;;;;;;287.50;265.42;;;11.50;86.80;;;;;;5027284;28;20033;-82
2023/05/20 01:38:38;;;;;;;440.80;412.38;;;11.50;87.00;;;;;;5024845;28;20029;-86
2023/05/20 01:41:06;;;;;;;479.40;449.23;;;11.40;87.20;;;;;;5037260;28;20022;-81
2023/05/20 01:43:31;;;;;;;321.25;298.55;;;11.50;87.50;;;;;;5013272;28;20084;-84
2023/05/20 01:45:57;;;;;;;340.60;317.90;;;11.50;86.80;;;;;;5023291;28;21739;-84
2023/05/20 01:48:23;;;;;;;545.08;511.52;;;11.50;86.90;;;;;;5020614;28;20026;-79
2023/05/20 01:50:50;;;;;;;468.65;439.90;;;11.40;87.20;;;;;;5034900;28;20047;-82
2023/05/20 01:53:16;;;;;;;449.83;420.35;;;11.50;87.30;;;;;;5006608;28;20049;-81
2023/05/20 01:55:41;;;;;;;430.70;403.80;;;11.40;87.20;;;;;;5030334;28;20560;-84
2023/05/20 01:58:07;;;;;;;543.38;510.60;;;11.50;87.20;;;;;;5028644;28;20435;-80
2023/05/20 02:00:33;;;;;;;567.55;532.90;;;11.40;87.30;;;;;;5010728;28;20489;-82
2023/05/20 02:02:59;;;;;;;443.15;415.15;;;11.40;87.50;;;;;;5022497;28;20046;-81
2023/05/20 02:05:25;;;;;;;480.60;449.73;;;11.40;87.30;;;;;;5025528;28;20033;-83
2023/05/20 02:07:50;;;;;;;511.48;478.85;;;11.30;88.10;;;;;;5026558;28;20042;-84
2023/05/20 02:10:16;;;;;;;577.63;542.25;;;11.40;87.10;;;;;;5031184;28;20124;-81
2023/05/20 02:12:45;;;;;;;578.33;542.83;;;11.30;87.70;;;;;;5025659;28;20062;-84
2023/05/20 02:15:10;;;;;;;574.03;538.22;;;11.30;87.80;;;;;;5024357;28;20035;-81
2023/05/20 02:17:36;;;;;;;529.00;497.52;;;11.30;87.70;;;;;;5019415;28;20112;-83
2023/05/20 02:20:04;;;;;;;563.05;530.83;;;11.30;87.70;;;;;;5029425;28;20034;-85
2023/05/20 02:22:30;;;;;;;601.03;564.65;;;11.30;88.00;;;;;;5018588;28;20550;-83
2023/05/20 02:24:57;;;;;;;571.08;536.50;;;11.30;87.90;;;;;;5026567;28;20041;-81
2023/05/20 02:27:23;;;;;;;563.97;531.80;;;11.30;87.90;;;;;;5029428;28;20091;-83
2023/05/20 02:29:48;;;;;;;608.70;575.83;;;11.30;88.10;;;;;;5028786;28;20041;-82
2023/05/20 02:32:14;;;;;;;596.35;561.30;;;11.20;88.10;;;;;;5017030;28;20373;-80
2023/05/20 02:34:40;;;;;;;581.63;548.50;;;11.30;88.30;;;;;;5024995;28;20079;-83
2023/05/20 02:37:05;;;;;;;614.15;579.72;;;11.30;88.30;;;;;;5019543;28;20038;-82
2023/05/20 02:39:32;;;;;;;585.60;550.80;;;11.30;87.90;;;;;;5025762;28;20407;-82
2023/05/20 02:41:58;;;;;;;591.63;557.92;;;11.30;87.90;;;;;;5036862;28;20042;-84
2023/05/20 02:44:24;;;;;;;592.78;556.88;;;11.30;88.10;;;;;;5025260;28;20038;-81
2023/05/20 02:46:49;;;;;;;574.80;542.97;;;11.30;88.20;;;;;;5021966;28;20545;-78
2023/05/20 02:49:15;;;;;;;596.78;560.20;;;11.30;88.10;;;;;;5027698;28;20036;-83
2023/05/20 02:51:41;;;;;;;609.63;572.65;;;11.40;88.00;;;;;;5025347;28;20038;-82
2023/05/20 02:54:06;;;;;;;616.67;580.97;;;11.40;88.00;;;;;;5021350;28;20033;-82
2023/05/20 02:56:33;;;;;;;619.75;582.60;;;11.30;88.00;;;;;;5040966;28;20026;-81
2023/05/20 02:58:59;;;;;;;587.60;554.53;;;11.50;87.80;;;;;;5035093;28;20116;-82
2023/05/20 03:01:26;;;;;;;601.58;566.95;;;11.40;87.70;;;;;;5022582;28;20037;-82
2023/05/20 03:03:51;;;;;;;609.47;575.55;;;11.40;87.70;;;;;;5012333;28;20049;-82
2023/05/20 03:06:17;;;;;;;596.78;564.08;;;11.30;88.20;;;;;;5021619;28;20026;-83
2023/05/20 03:08:43;;;;;;;602.60;569.40;;;11.30;88.40;;;;;;5043371;28;20056;-84
2023/05/20 03:11:08;;;;;;;617.72;584.70;;;11.30;88.20;;;;;;5018064;28;20097;-82
2023/05/20 03:13:34;;;;;;;601.70;569.90;;;11.30;88.40;;;;;;5023764;28;20044;-80
2023/05/20 03:16:00;;;;;;;602.40;569.47;;;11.30;88.80;;;;;;5024410;28;20444;-85
2023/05/20 03:18:26;;;;;;;597.85;565.40;;;11.30;88.70;;;;;;5020057;28;20107;-84
2023/05/20 03:20:52;;;;;;;601.22;569.33;;;11.30;88.90;;;;;;5022347;28;20037;-85
2023/05/20 03:23:18;;;;;;;569.92;539.85;;;11.30;89.10;;;;;;5032209;28;20029;-85
2023/05/20 03:25:43;;;;;;;608.58;576.38;;;11.20;89.40;;;;;;5024681;28;20033;-84
2023/05/20 03:28:09;;;;;;;616.05;582.97;;;11.30;89.10;;;;;;5024275;28;20053;-81
2023/05/20 03:30:38;;;;;;;588.28;557.20;;;11.30;89.30;;;;;;5024238;28;20406;-81
2023/05/20 03:33:05;;;;;;;606.03;574.63;;;11.30;89.00;;;;;;5026324;28;20034;-81
2023/05/20 03:35:31;;;;;;;583.92;553.65;;;11.40;89.00;;;;;;5017677;28;20045;-82
2023/05/20 03:37:58;;;;;;;608.58;576.80;;;11.30;89.30;;;;;;5022232;28;20595;-83
2023/05/20 03:40:24;;;;;;;618.35;585.17;;;11.20;89.50;;;;;;5003575;28;20030;-81
2023/05/20 03:42:50;;;;;;;602.83;571.00;;;11.30;89.40;;;;;;5024375;28;20049;-83
2023/05/20 03:45:16;;;;;;;626.03;592.85;;;11.30;89.40;;;;;;5020100;28;20044;-83
2023/05/20 03:47:42;;;;;;;623.13;590.70;;;11.30;89.60;;;;;;5020178;28;20033;-81
2023/05/20 03:50:08;;;;;;;628.17;595.30;;;11.30;89.70;;;;;;5027121;28;20552;-84
2023/05/20 03:52:33;;;;;;;602.17;571.30;;;11.30;90.00;;;;;;5022434;28;20040;-82
2023/05/20 03:54:59;;;;;;;629.42;597.03;;;11.20;90.00;;;;;;5010482;28;20056;-82
2023/05/20 03:57:25;;;;;;;624.65;592.65;;;11.20;90.10;;;;;;5024806;28;20040;-84
2023/05/20 03:59:51;;;;;;;633.17;599.92;;;11.20;90.10;;;;;;5024338;28;20218;-81
2023/05/20 04:02:17;;;;;;;654.90;621.00;;;11.20;90.20;;;;;;5039431;28;20124;-83
2023/05/20 04:04:43;;;;;;;616.97;584.90;;;11.40;90.00;;;;;;5026627;28;20049;-82
2023/05/20 04:07:09;;;;;;;604.90;573.40;;;11.30;90.00;;;;;;5026832;28;20042;-84
2023/05/20 04:09:37;;;;;;;631.90;598.45;;;11.30;89.70;;;;;;5013901;28;20090;-83
2023/05/20 04:12:02;;;;;;;603.10;572.58;;;11.40;89.90;;;;;;5023397;28;20029;-81
2023/05/20 04:14:28;;;;;;;442.42;421.58;;;11.30;89.80;;;;;;5019792;28;20045;-83
2023/05/20 04:16:54;;;;;;;630.92;597.72;;;11.40;89.50;;;;;;5033265;28;20026;-78
2023/05/20 04:19:19;;;;;;;611.78;580.92;;;11.40;89.60;;;;;;5016799;28;20055;-82
2023/05/20 04:21:45;;;;;;;655.92;621.65;;;11.40;89.30;;;;;;5024136;28;20098;-82
2023/05/20 04:24:11;;;;;;;633.67;601.22;;;11.40;89.70;;;;;;5024375;28;20041;-85
2023/05/20 04:26:37;;;;;;;630.22;597.42;;;11.40;89.50;;;;;;5020853;28;20093;-79
2023/05/20 04:29:03;;;;;;;607.95;577.88;;;11.40;89.70;;;;;;5027327;28;20602;-82
2023/05/20 04:31:30;;;;;;;606.38;576.53;;;11.50;89.30;;;;;;5020878;28;20033;-79
2023/05/20 04:33:56;;;;;;;635.28;602.00;;;11.50;89.40;;;;;;5030548;28;20617;-83
2023/05/20 04:36:27;;;;;;;605.22;574.00;;;11.60;89.30;;;;;;5021134;28;20038;-80
2023/05/20 04:38:53;;;;;;;613.60;583.08;;;11.60;88.90;;;;;;5023316;28;20039;-82
2023/05/20 04:41:19;;;;;;;617.65;586.50;;;11.60;88.90;;;;;;5021584;28;20104;-83
2023/05/20 04:43:46;;;;;;;625.60;593.30;;;11.70;88.60;;;;;;5029710;28;20199;-83
2023/05/20 04:46:12;;;;;;;624.47;593.20;;;11.60;88.80;;;;;;5026259;28;20160;-81
2023/05/20 04:48:38;;;;;;;632.70;600.63;;;11.60;88.70;;;;;;5023256;28;20075;-80
2023/05/20 04:51:04;;;;;;;618.83;588.45;;;11.70;88.90;;;;;;5015066;28;20693;-82
2023/05/20 04:53:29;;;;;;;673.45;638.63;;;11.60;88.80;;;;;;5028376;28;20041;-82
2023/05/20 04:55:55;;;;;;;609.70;578.75;;;11.60;90.00;;;;;;5023231;28;20065;-80
2023/05/20 04:58:23;;;;;;;679.35;643.50;;;11.70;89.00;;;;;;5024977;28;20055;-83
2023/05/20 05:00:50;;;;;;;666.13;631.30;;;11.60;89.30;;;;;;5025385;28;20029;-83
2023/05/20 05:03:17;;;;;;;626.70;594.92;;;11.60;89.30;;;;;;5021429;28;20036;-78
2023/05/20 05:05:43;;;;;;;635.63;602.78;;;11.70;88.60;;;;;;5014753;28;20045;-79
2023/05/20 05:08:12;;;;;;;652.90;618.03;;;11.70;89.10;;;;;;5032800;28;20034;-82
2023/05/20 05:10:37;;;;;;;647.58;614.60;;;11.60;89.30;;;;;;5029193;28;20033;-79
2023/05/20 05:13:03;;;;;;;677.70;641.65;;;11.60;89.50;;;;;;5013898;28;20048;-79
2023/05/20 05:15:29;;;;;;;635.72;602.47;;;11.60;89.70;;;;;;5022723;28;20029;-84
2023/05/20 05:17:54;;;;;;;648.83;614.90;;;11.70;89.50;;;;;;5024493;28;20480;-82
2023/05/20 05:20:20;;;;;;;632.53;599.15;;;11.60;89.40;;;;;;5026243;28;20454;-83
2023/05/20 05:22:46;;;;;;;593.25;563.30;;;11.70;89.30;;;;;;5032239;28;20120;-78
2023/05/20 05:25:12;;;;;;;642.22;608.85;;;11.70;89.00;;;;;;5024999;28;20026;-80
2023/05/20 05:27:38;;;;;;;640.70;607.58;;;11.70;89.30;;;;;;5008599;28;20049;-81
2023/05/20 05:30:06;;;;;;;650.35;615.85;;;11.70;89.00;;;;;;5038007;28;20045;-80
2023/05/20 05:32:32;;;;;;;640.97;607.83;;;11.90;88.60;;;;;;5028018;28;20030;-84
2023/05/20 05:34:58;;;;;;;614.92;584.33;;;11.90;88.70;;;;;;5025850;28;20038;-80
2023/05/20 05:37:23;;;;;;;674.65;638.22;;;11.90;88.40;;;;;;5020476;28;20060;-79
2023/05/20 05:39:49;;;;;;;658.33;624.03;;;11.80;89.10;;;;;;5020067;28;20037;-79
2023/05/20 05:42:15;;;;;;;648.90;614.63;;;11.90;88.40;;;;;;5037459;28;20033;-81
2023/05/20 05:44:41;;;;;;;664.80;630.10;;;12.00;88.70;;;;;;5023176;28;20083;-83
2023/05/20 05:47:06;;;;;;;644.45;610.95;;;11.90;88.70;;;;;;5026991;28;20031;-84
2023/05/20 05:49:33;;;;;;;657.40;622.42;;;12.00;88.60;;;;;;5019021;28;20092;-83
2023/05/20 05:52:00;;;;;;;636.95;603.45;;;12.10;88.10;;;;;;5014214;28;20056;-82
2023/05/20 05:54:26;;;;;;;644.72;609.95;;;12.10;88.10;;;;;;5019718;28;20503;-79
2023/05/20 05:56:52;;;;;;;687.47;649.85;;;12.00;88.50;;;;;;5020065;28;20096;-83
2023/05/20 05:59:18;;;;;;;650.95;615.63;;;11.90;89.20;;;;;;5020582;28;20037;-82
2023/05/20 06:01:44;;;;;;;683.88;647.03;;;12.10;88.80;;;;;;5025609;28;20042;-82
2023/05/20 06:04:10;;;;;;;640.70;607.67;;;12.20;88.40;;;;;;5026723;28;20030;-82
2023/05/20 06:06:36;;;;;;;628.20;596.17;;;12.30;87.90;;;;;;5023141;28;20045;-79
2023/05/20 06:09:02;;;;;;;651.17;617.30;;;12.40;87.50;;;;;;5020156;28;20034;-83
2023/05/20 06:11:27;;;;;;;672.88;636.20;;;12.20;87.50;;;;;;5024480;28;20030;-80
2023/05/20 06:13:54;;;;;;;649.10;615.90;;;12.20;87.60;;;;;;5022683;28;20049;-82
2023/05/20 06:16:20;;;;;;;648.45;614.25;;;12.30;88.10;;;;;;5025983;28;20057;-81
2023/05/20 06:18:46;;;;;;;661.67;626.53;;;12.40;87.40;;;;;;5020470;28;20790;-83
2023/05/20 06:21:11;;;;;;;675.30;636.17;;;12.30;87.30;;;;;;5026476;28;20395;-81
2023/05/20 06:23:37;;;;;;;636.75;603.92;;;12.20;87.50;;;;;;5017469;28;20117;-80
2023/05/20 06:26:03;;;;;;;653.00;618.17;;;12.20;88.00;;;;;;5019657;28;20109;-81
2023/05/20 06:28:29;;;;;;;689.63;645.65;;;12.40;88.00;;;;;;5021955;28;20053;-81
2023/05/20 06:30:56;;;;;;;667.78;632.28;;;12.20;87.40;;;;;;5006378;28;20534;-78
2023/05/20 06:33:26;;;;;;;663.47;628.42;;;12.30;88.40;;;;;;5021907;28;20038;-83
2023/05/20 06:35:52;;;;;;;639.95;606.20;;;12.50;87.60;;;;;;5019539;28;20053;-84
2023/05/20 06:38:18;;;;;;;673.75;638.05;;;12.30;88.00;;;;;;5030496;28;20368;-82
2023/05/20 06:40:44;;;;;;;678.85;641.13;;;12.20;88.80;;;;;;5010527;28;20029;-78
2023/05/20 06:43:10;;;;;;;659.90;624.33;;;12.40;88.60;;;;;;5025631;28;20033;-79
2023/05/20 06:45:35;;;;;;;654.42;619.45;;;12.40;87.90;;;;;;5021428;28;20372;-78
2023/05/20 06:48:01;;;;;;;689.00;651.20;;;12.50;87.80;;;;;;5021661;28;20433;-78
2023/05/20 06:50:27;;;;;;;673.58;637.42;;;12.50;88.00;;;;;;5020752;28;20049;-83
2023/05/20 06:52:53;;;;;;;679.55;642.60;;;12.60;86.90;;;;;;5033498;28;20044;-81
2023/05/20 06:55:19;;;;;;;644.22;610.15;;;13.00;86.50;;;;;;5026011;28;20044;-81
2023/05/20 06:57:45;;;;;;;653.50;617.90;;;13.00;85.70;;;;;;5021018;28;20029;-79
2023/05/20 07:00:12;;;;;;;642.90;607.50;;;12.90;85.20;;;;;;5028736;28;20051;-79
2023/05/20 07:02:39;;;;;;;624.35;591.03;;;12.70;86.20;;;;;;5020944;28;20029;-81
2023/05/20 07:05:05;;;;;;;674.75;634.75;;;12.70;85.60;;;;;;5026442;28;20095;-77
2023/05/20 07:07:31;;;;;;;677.22;640.38;;;12.70;86.20;;;;;;5025277;28;20123;-84
2023/05/20 07:09:57;;;;;;;683.75;647.05;;;12.60;87.10;;;;;;5022000;28;21411;-82
2023/05/20 07:12:23;;;;;;;692.08;655.15;;;12.50;87.30;;;;;;5024966;28;20525;-83
2023/05/20 07:14:50;;;;;;;668.67;633.30;;;12.50;87.20;;;;;;5029377;28;20029;-79
2023/05/20 07:17:16;;;;;;;690.90;651.25;;;12.60;86.70;;;;;;5025497;28;20026;-82
2023/05/20 07:19:42;;;;;;;690.58;648.85;;;12.40;87.00;;;;;;5020091;28;20026;-83
2023/05/20 07:22:08;;;;;;;651.65;615.97;;;12.40;86.60;;;;;;5026512;28;20716;-85
2023/05/20 07:24:35;;;;;;;643.97;607.33;;;12.20;87.10;;;;;;5044894;28;20192;-79
2023/05/20 07:27:01;;;;;;;700.08;660.75;;;12.20;87.40;;;;;;5024351;28;20071;-82
2023/05/20 07:29:27;;;;;;;652.83;617.80;;;12.20;87.60;;;;;;5031661;28;20113;-80
2023/05/20 07:31:54;;;;;;;656.85;621.20;;;12.40;87.70;;;;;;5029046;28;20458;-82
2023/05/20 07:34:21;;;;;;;685.08;647.42;;;12.40;87.40;;;;;;5027590;28;20033;-82
2023/05/20 07:36:47;;;;;;;693.92;654.67;;;12.40;87.60;;;;;;5024569;28;20040;-84
2023/05/20 07:39:13;;;;;;;674.72;636.42;;;12.30;87.30;;;;;;5021136;28;20029;-86
2023/05/20 07:41:39;;;;;;;669.70;632.92;;;12.40;87.40;;;;;;5023414;28;20116;-85
2023/05/20 07:44:07;;;;;;;690.13;652.15;;;12.40;87.00;;;;;;5020174;28;20060;-83
2023/05/20 07:46:34;;;;;;;694.20;654.53;;;12.50;87.20;;;;;;5018423;28;20391;-83
2023/05/20 07:49:00;;;;;;;709.20;668.13;;;12.80;85.80;;;;;;5019326;28;20037;-86
2023/05/20 07:51:26;;;;;;;675.33;637.10;;;12.90;86.00;;;;;;5031119;28;20034;-84
2023/05/20 07:53:51;;;;;;;644.05;609.10;;;12.90;85.50;;;;;;5019283;28;20022;-85
2023/05/20 07:56:18;;;;;;;698.80;660.03;;;13.10;84.70;;;;;;5024057;28;20025;-85
2023/05/20 07:58:55;;;;;;;681.63;641.72;;;13.40;83.90;;;;;;5017324;28;20033;-86
2023/05/20 08:01:22;;;;;;;665.97;626.42;;;13.10;83.40;;;;;;5032037;28;20025;-85
2023/05/20 08:03:47;;;;;;;629.78;591.65;;;13.40;82.70;;;;;;5023884;28;20026;-86
2023/05/20 08:06:13;;;;;;;484.38;454.10;;;13.30;82.20;;;;;;5020546;28;20034;-84
2023/05/20 08:08:42;;;;;;;605.13;568.10;;;13.40;81.70;;;;;;5022161;28;20045;-84
2023/05/20 08:11:08;;;;;;;634.00;594.53;;;13.30;82.60;;;;;;5019371;28;20428;-80
2023/05/20 08:13:34;;;;;;;554.15;518.58;;;13.50;82.00;;;;;;5028585;28;20022;-84
2023/05/20 08:16:00;;;;;;;641.65;600.83;;;13.70;82.20;;;;;;5023973;28;20490;-85
2023/05/20 08:18:28;;;;;;;542.42;508.23;;;13.70;81.70;;;;;;5022400;28;20068;-85
2023/05/20 08:20:56;;;;;;;1999.90;999.90;;;14.00;80.20;;;;;;5030764;28;20057;-90
2023/05/20 08:23:21;;;;;;;262.17;243.70;;;14.00;78.90;;;;;;5021630;28;20056;-79
2023/05/20 08:25:47;;;;;;;1236.82;720.60;;;13.90;79.30;;;;;;5029855;28;20041;-80
2023/05/20 08:28:13;;;;;;;1999.90;999.90;;;14.10;78.90;;;;;;5029722;28;20529;-82
2023/05/20 08:30:40;;;;;;;1999.90;999.90;;;14.20;78.70;;;;;;5028190;28;20041;-80
2023/05/20 08:33:07;;;;;;;1999.90;999.90;;;14.20;78.10;;;;;;5027173;28;20041;-80
2023/05/20 08:35:33;;;;;;;1999.90;999.90;;;14.60;77.00;;;;;;5011815;28;20025;-80
2023/05/20 08:38:00;;;;;;;1999.90;999.90;;;14.50;77.20;;;;;;5027354;28;20029;-83
2023/05/20 08:40:26;;;;;;;1999.90;999.90;;;14.70;76.50;;;;;;5029340;28;20084;-81
2023/05/20 08:42:52;;;;;;;1999.90;999.90;;;14.80;76.10;;;;;;5028216;28;20569;-83
2023/05/20 08:45:20;;;;;;;1999.90;999.90;;;14.90;75.50;;;;;;5027470;28;20045;-83
2023/05/20 08:47:46;;;;;;;1999.90;999.90;;;15.00;75.10;;;;;;5028359;28;20037;-83
2023/05/20 08:50:13;;;;;;;1999.90;999.90;;;15.20;75.90;;;;;;5027201;28;20112;-85
2023/05/20 08:52:45;;;;;;;1999.90;999.90;;;15.40;75.50;;;;;;5030593;28;20072;-82
2023/05/20 08:55:37;;;;;;;1999.90;999.90;;;15.60;72.40;;;;;;5026897;28;20037;-81
2023/05/20 08:58:04;;;;;;;1999.90;999.90;;;15.60;73.50;;;;;;5026282;28;20037;-81
2023/05/20 09:00:31;;;;;;;1999.90;999.90;;;15.50;74.20;;;;;;5029157;28;20487;-81
2023/05/20 09:02:58;;;;;;;1999.90;999.90;;;15.40;72.80;;;;;;5030725;28;20052;-82
2023/05/20 09:05:24;;;;;;;1999.90;999.90;;;15.50;73.90;;;;;;5032238;28;20104;-80
2023/05/20 09:07:51;;;;;;;1999.90;999.90;;;15.50;74.10;;;;;;5027989;28;20128;-82
2023/05/20 09:10:19;;;;;;;1999.90;999.90;;;16.00;72.00;;;;;;5031245;28;20507;-87
2023/05/20 09:12:45;;;;;;;1999.90;999.90;;;16.20;72.40;;;;;;5026827;28;20033;-82
2023/05/20 09:15:11;;;;;;;1999.90;999.90;;;16.50;71.30;;;;;;5030272;28;20136;-80
2023/05/20 09:17:37;;;;;;;1999.90;999.90;;;17.00;70.70;;;;;;5025913;28;20064;-84
2023/05/20 09:20:10;;;;;;;1999.90;999.90;;;17.20;67.70;;;;;;5014875;28;20117;-80
2023/05/20 09:22:38;;;;;;;1999.90;999.90;;;17.20;68.10;;;;;;5024297;28;20030;-83
2023/05/20 09:25:04;;;;;;;1999.90;999.90;;;17.30;67.30;;;;;;5025887;28;20034;-80
2023/05/20 09:27:30;;;;;;;1999.90;999.90;;;17.70;67.20;;;;;;5029923;28;20048;-81
2023/05/20 09:29:55;;;;;;;1999.90;999.90;;;17.90;67.10;;;;;;5030104;28;20414;-81
2023/05/20 09:32:27;;;;;;;1999.90;999.90;;;17.60;65.60;;;;;;5028376;28;20132;-80
2023/05/20 09:34:53;;;;;;;1999.90;999.90;;;17.30;65.30;;;;;;5033057;28;20064;-81
2023/05/20 09:37:20;;;;;;;1999.90;999.90;;;17.40;67.00;;;;;;5027722;28;20053;-85
2023/05/20 09:39:59;;;;;;;1999.90;999.90;;;17.00;68.90;;;;;;5016443;28;20487;-85
2023/05/20 09:42:49;;;;;;;1999.90;999.90;;;17.30;67.00;;;;;;5030480;28;20048;-83
2023/05/20 09:45:15;;;;;;;1999.90;999.90;;;17.50;66.00;;;;;;5031564;28;20503;-82
2023/05/20 09:47:42;;;;;;;1999.90;999.90;;;17.90;65.10;;;;;;5028306;28;20037;-79
2023/05/20 09:50:08;;;;;;;1999.90;999.90;;;17.50;64.70;;;;;;5027997;28;20026;-85
2023/05/20 09:52:38;;;;;;;1999.90;999.90;;;17.60;66.10;;;;;;5048245;28;20608;-84
2023/05/20 09:55:12;;;;;;;1999.90;999.90;;;17.30;67.30;;;;;;5036999;28;20065;-81
2023/05/20 09:57:38;;;;;;;1999.90;999.90;;;17.20;67.50;;;;;;5035603;28;20035;-81
2023/05/20 10:00:05;;;;;;;1999.90;999.90;;;17.20;67.50;;;;;;5037080;28;20034;-80
2023/05/20 10:02:33;;;;;;;1999.90;999.90;;;17.20;67.10;;;;;;5032983;28;20067;-81
2023/05/20 10:05:05;;;;;;;1999.90;999.90;;;17.70;67.50;;;;;;5034824;28;20041;-85
2023/05/20 10:08:12;;;;;;;1999.90;999.90;;;17.90;65.20;;;;;;5027737;28;20107;-83
2023/05/20 10:10:44;;;;;;;1999.90;999.90;;;18.70;63.60;;;;;;5033861;28;20457;-81
2023/05/20 10:13:31;;;;;;;1999.90;999.90;;;18.70;61.10;;;;;;5026623;28;20107;-83
2023/05/20 10:16:24;;;;;;;1999.90;999.90;;;18.10;62.00;;;;;;5026778;28;20033;-82
2023/05/20 10:19:10;;;;;;;1999.90;999.90;;;18.80;62.40;;;;;;5024016;28;20063;-80
2023/05/20 10:21:37;;;;;;;1999.90;999.90;;;18.50;62.40;;;;;;5026516;28;20030;-81
2023/05/20 10:24:10;;;;;;;1999.90;999.90;;;18.40;64.10;;;;;;5028749;28;20037;-85
2023/05/20 10:26:37;;;;;;;1999.90;999.90;;;18.30;62.70;;;;;;5024565;28;20085;-79
2023/05/20 10:29:21;;;;;;;1999.90;999.90;;;18.20;64.00;;;;;;5023467;28;20062;-83
2023/05/20 10:31:51;;;;;;;1999.90;999.90;;;18.10;63.70;;;;;;5026614;28;20025;-81
2023/05/20 10:34:18;;;;;;;1999.90;999.90;;;18.00;64.20;;;;;;5022553;28;20075;-83
2023/05/20 10:36:54;;;;;;;1999.90;999.90;;;18.10;63.30;;;;;;5020587;28;20451;-87
2023/05/20 10:39:28;;;;;;;1999.90;999.90;;;18.30;63.10;;;;;;5031804;28;20021;-81
2023/05/20 10:42:06;;;;;;;1999.90;999.90;;;18.30;62.60;;;;;;5030392;28;20071;-84
2023/05/20 10:44:46;;;;;;;1999.90;999.90;;;18.60;61.40;;;;;;5028396;28;20043;-84
2023/05/20 10:47:12;;;;;;;1999.90;999.90;;;18.60;61.00;;;;;;5023394;28;20065;-83
2023/05/20 10:49:46;;;;;;;1999.90;999.90;;;18.20;63.60;;;;;;5031566;28;20045;-83
2023/05/20 10:52:16;;;;;;;1999.90;999.90;;;18.00;62.60;;;;;;5026669;28;20034;-83
2023/05/20 10:54:46;;;;;;;1999.90;999.90;;;17.50;64.20;;;;;;5026262;28;20514;-81
2023/05/20 10:57:11;;;;;;;1999.90;999.90;;;17.70;64.70;;;;;;5026798;28;20204;-84
2023/05/20 10:59:37;;;;;;;1999.90;999.90;;;18.10;63.20;;;;;;5031457;28;20108;-85
2023/05/20 11:02:03;;;;;;;1999.90;999.90;;;18.00;63.30;;;;;;5025542;28;20033;-80
2023/05/20 11:04:30;;;;;;;1999.90;999.90;;;18.20;62.40;;;;;;5028283;28;20041;-80
2023/05/20 11:06:57;;;;;;;1999.90;999.90;;;18.10;63.40;;;;;;5027687;28;20103;-81
2023/05/20 11:09:23;;;;;;;1999.90;999.90;;;18.10;62.60;;;;;;5019459;28;20041;-82
2023/05/20 11:11:52;;;;;;;1999.90;999.90;;;18.60;61.80;;;;;;5025342;28;20018;-83
2023/05/20 11:14:19;;;;;;;1999.90;999.90;;;18.90;61.30;;;;;;5029261;28;20029;-79
2023/05/20 11:16:45;;;;;;;1999.90;999.90;;;19.30;61.00;;;;;;5026103;28;20040;-87
2023/05/20 11:19:17;;;;;;;1999.90;999.90;;;20.60;60.10;;;;;;5026513;28;20039;-83
2023/05/20 11:21:45;;;;;;;1999.90;999.90;;;21.40;56.60;;;;;;5028852;28;20059;-81
2023/05/20 11:24:12;;;;;;;1999.90;999.90;;;21.50;52.20;;;;;;5026539;28;20029;-83
2023/05/20 11:26:38;;;;;;;1999.90;999.90;;;22.00;54.90;;;;;;5028975;28;20034;-81
2023/05/20 11:29:04;;;;;;;1999.90;999.90;;;22.20;52.60;;;;;;5016550;28;20098;-79
2023/05/20 11:31:31;;;;;;;1999.90;999.90;;;22.90;52.90;;;;;;5026321;28;20057;-77
2023/05/20 11:34:00;;;;;;;1999.90;999.90;;;24.40;49.60;;;;;;5031981;28;20570;-78
2023/05/20 11:36:27;;;;;;;1999.90;999.90;;;25.20;47.60;;;;;;5026544;28;20030;-79
2023/05/20 11:38:54;;;;;;;1999.90;999.90;;;23.80;47.70;;;;;;5031124;28;20033;-78
2023/05/20 11:41:26;;;;;;;1999.90;999.90;;;23.30;46.40;;;;;;5043086;28;20037;-78
2023/05/20 11:43:59;;;;;;;1999.90;999.90;;;23.30;47.50;;;;;;5032887;28;20076;-78
2023/05/20 11:46:25;;;;;;;1999.90;999.90;;;23.40;47.10;;;;;;5025096;28;20526;-78
2023/05/20 11:48:55;;;;;;;1999.90;999.90;;;23.40;47.80;;;;;;5018447;28;20121;-79
2023/05/20 11:51:29;;;;;;;1999.90;999.90;;;23.50;47.60;;;;;;5019345;28;20044;-78
2023/05/20 11:54:00;;;;;;;1999.90;999.90;;;23.30;47.60;;;;;;5026700;28;20037;-81
2023/05/20 11:56:29;;;;;;;1999.90;999.90;;;23.10;47.90;;;;;;5026409;28;20022;-80
2023/05/20 11:58:56;;;;;;;1999.90;999.90;;;23.60;46.20;;;;;;5026693;28;20113;-81
2023/05/20 12:01:22;;;;;;;1999.90;999.90;;;22.70;48.60;;;;;;5031084;28;20395;-86
2023/05/20 12:03:49;;;;;;;1999.90;999.90;;;22.50;49.00;;;;;;5030208;28;20038;-82